Aeroporto :







RITROVATECI SU...

 
LOGIN :

Iscrizione | Disclaimer

   EN    FR    IT 

 









Sommario :    VFR   VFR Marginale   IFR   IFR Intensivo   IFR Molto Intensivo
Visibilità : 
Base nubi : 
>= 8 km
>= 3000ft
5 / 8 km
1000 / 3000 ft
1500m / 5 km
500 / 1000 ft
800 / 1500m
200 / 500 ft
< 800m
< 200 ft
Simboli :   Temporali  Nebbia  Neve Forte  Precipitazioni Forti  Vento > 20 kt






- Altitudine del aeroporto : 244 ft
- Codice IATA : YQB


CYQB - Quebec - Jean Lesage Int.

ULTIMO METAR :
  • 241000Z VRB02KT 15SM OVC080 M03/M05 A2987 RMK AC8 SLP122

METARs OBSOLETI :
  • 240900Z 36003KT 15SM BKN062 M03/M05 A2988 RMK SC7 SLP125
  • 240800Z 00000KT 15SM BKN069 M05/M06 A2989 RMK AC6 SLP127

TAF TAF CYQB
Valido dal 24 a 06 ore il 25 a 06 ore UTC


240538Z 2406/2506 VRB03KT P6SM BKN060 BKN180
PROB30 2407/2412 2SM BR SCT006
FM241300 25008KT P6SM BKN030
BECMG 2414/2416 25012G22KT
FM242000 25012KT P6SM OVC020
FM250200 26008KT P6SM SCT040
PROB30 2502/2506 2SM BR RMK NXT FCST BY 241200Z
ATIS : ENG : +1 418-871-6893 FRA : +1 418-871-6895



MetMap, La meteo Aeronautica in un colpo d'occhio ! - Copyright ORBIFLY Dicembre 2007 - Disclaimer

ORBIFLY MET'MAP TEAM :

Programmazione e sviluppo : Alexandra Zaïnal
Concezione : Baudouin d'Aumeries
Aiuto per la programmazione : Marc-Olivier Méhu
Supporto tecnico e logistico : Manuel Goepfert
Aiuto per la traduzione : Arnaldo La Scala

Contatto : metmap@orbifly.com




FONTI E CREDITI :

   NOAA